This is the latest recevied weather packets stored in our database for station/object OK1FRN-6. If no packets are shown the sender has not sent any weather packets the latest 10 day(s).
| Time | Temp. | Humidity | Pressure | Rain* | Wind** | Luminosity | Snow |
|---|---|---|---|---|---|---|---|
| 1777340488 | 1.11° C | 63% | 1021.7 hPa | - | - | - | - |
| 1777340183 | 1.11° C | 63% | 1021.7 hPa | - | - | - | - |
| 1777339878 | 1.11° C | 62% | 1021.7 hPa | - | - | - | - |
| 1777339267 | 1.11° C | 62% | 1021.7 hPa | - | - | - | - |
| 1777338962 | 1.11° C | 62% | 1021.7 hPa | - | - | - | - |
| 1777338657 | 1.11° C | 62% | 1021.7 hPa | - | - | - | - |
| 1777338352 | 1.11° C | 62% | 1021.7 hPa | - | - | - | - |
| 1777337741 | 1.67° C | 61% | 1021.8 hPa | - | - | - | - |
| 1777337436 | 1.67° C | 61% | 1021.9 hPa | - | - | - | - |
| 1777337131 | 1.67° C | 60% | 1021.9 hPa | - | - | - | - |
| 1777335910 | 2.22° C | 59% | 1021.9 hPa | - | - | - | - |
| 1777335299 | 2.22° C | 59% | 1021.9 hPa | - | - | - | - |
| 1777334994 | 2.22° C | 58% | 1021.9 hPa | - | - | - | - |
| 1777332552 | 2.78° C | 57% | 1022 hPa | - | - | - | - |
| 1777312989 | 14.44° C | 34% | 1021.1 hPa | - | - | - | - |
| 1777311458 | 15.56° C | 32% | 1020.9 hPa | - | - | - | - |
| 1777311151 | 16.11° C | 32% | 1021 hPa | - | - | - | - |
| 1777310845 | 16.11° C | 32% | 1021 hPa | - | - | - | - |
| 1777310539 | 16.11° C | 31% | 1020.9 hPa | - | - | - | - |
| 1777310233 | 16.11° C | 31% | 1021 hPa | - | - | - | - |
| 1777309927 | 16.67° C | 31% | 1020.9 hPa | - | - | - | - |
| 1777309620 | 16.67° C | 31% | 1020.9 hPa | - | - | - | - |
| 1777308701 | 17.22° C | 30% | 1020.9 hPa | - | - | - | - |
| 1777308089 | 17.22° C | 29% | 1021 hPa | - | - | - | - |
| 1777307476 | 17.78° C | 29% | 1021 hPa | - | - | - | - |
* Rain since midnight (hover to see other rain measurements)
** Current wind speed in m/s (hover to see current wind gust speed)